Time;durP1;ratioP1;P1;durP2;ratioP2;P2;SDS_P1;SDS_P2;PMS_P1;PMS_P2;Temp;Humidity;BMP_temperature;BMP_pressure;BME280_temperature;BME280_humidity;BME280_pressure;Samples;Min_cycle;Max_cycle;Signal;HPM_P1;HPM_P2
2021/12/28 00:00:11;;;;;;;;;;;;;;;6.03;50.55;93794.63;4997791;28;20060;-73
2021/12/28 00:02:36;;;;;;;;;;;;;;;6.09;50.36;93789.38;4997914;28;19993;-73
2021/12/28 00:05:02;;;;;;;;;;;;;;;5.90;47.33;93790.91;4997884;28;20001;-72
2021/12/28 00:07:27;;;;;;;;;;;;;;;5.96;47.70;93789.31;4997603;28;20001;-72
2021/12/28 00:09:53;;;;;;;;;;;;;;;6.12;49.77;93783.69;4997485;28;20009;-72
2021/12/28 00:12:18;;;;;;;;;;;;;;;6.21;49.05;93781.72;4996288;28;20426;-72
2021/12/28 00:15:01;;;;;;;;;;;;;;;6.20;49.26;93780.09;4994323;28;20347;-72
2021/12/28 00:20:10;;;;;;;;;;;;;;;5.35;53.68;93794.16;4997399;28;20546;-72
2021/12/28 00:22:35;;;;;;;;;;;;;;;5.48;52.60;93794.25;4996923;28;20110;-73
2021/12/28 00:25:00;;;;;;;;;;;;;;;5.14;50.39;93789.69;4996942;28;20115;-72
2021/12/28 00:27:25;;;;;;;;;;;;;;;3.30;57.62;93799.69;4997088;28;20494;-72
2021/12/28 00:29:51;;;;;;;;;;;;;;;4.76;54.20;93794.16;4998097;28;19973;-72
2021/12/28 00:32:16;;;;;;;;;;;;;;;5.06;52.35;93783.53;4996917;28;20025;-73
2021/12/28 00:34:41;;;;;;;;;;;;;;;5.39;53.38;93784.84;4996430;28;20020;-73
2021/12/28 00:37:06;;;;;;;;;;;;;;;5.41;48.93;93787.28;4997644;28;20469;-73
2021/12/28 00:39:32;;;;;;;;;;;;;;;5.62;51.51;93786.44;4997153;28;20452;-72
2021/12/28 00:41:57;;;;;;;;;;;;;;;5.81;50.39;93778.81;4996585;28;20672;-72
2021/12/28 00:44:22;;;;;;;;;;;;;;;5.98;48.71;93777.53;5000387;28;19990;-72
2021/12/28 00:46:47;;;;;;;;;;;;;;;6.00;47.82;93774.69;4983457;28;19993;-72
2021/12/28 00:49:13;;;;;;;;;;;;;;;5.93;51.67;93768.56;5000347;28;19989;-72
2021/12/28 00:51:38;;;;;;;;;;;;;;;5.92;49.24;93774.84;5001670;28;19990;-72
2021/12/28 00:54:03;;;;;;;;;;;;;;;5.01;54.22;93771.88;5001006;28;20364;-72
2021/12/28 00:56:29;;;;;;;;;;;;;;;5.69;52.07;93768.00;5000128;28;20076;-72
2021/12/28 00:58:54;;;;;;;;;;;;;;;5.98;51.43;93761.69;5001193;28;20242;-72
2021/12/28 01:01:19;;;;;;;;;;;;;;;5.27;50.20;93758.13;5001327;28;20114;-72
2021/12/28 01:03:44;;;;;;;;;;;;;;;5.73;47.81;93756.03;5001007;28;20501;-73
2021/12/28 01:06:09;;;;;;;;;;;;;;;6.06;48.15;93760.69;5000552;28;20459;-72
2021/12/28 01:08:35;;;;;;;;;;;;;;;6.18;46.02;93760.97;4983446;28;20365;-72
2021/12/28 01:11:00;;;;;;;;;;;;;;;6.21;47.92;93757.94;5000702;28;20056;-72
2021/12/28 01:13:26;;;;;;;;;;;;;;;5.97;52.13;93767.97;5001500;28;19974;-72
2021/12/28 01:15:51;;;;;;;;;;;;;;;6.10;51.68;93756.69;5000975;28;20568;-72
2021/12/28 01:18:16;;;;;;;;;;;;;;;6.10;46.97;93759.31;5000878;28;19966;-72
2021/12/28 01:20:42;;;;;;;;;;;;;;;6.16;45.94;93754.25;5001015;28;20065;-72
2021/12/28 01:23:07;;;;;;;;;;;;;;;6.24;46.43;93760.19;4982074;28;20080;-73
2021/12/28 01:25:32;;;;;;;;;;;;;;;6.33;48.61;93762.66;4999233;28;20065;-72
2021/12/28 01:27:57;;;;;;;;;;;;;;;6.26;45.92;93754.72;5004259;28;19998;-72
2021/12/28 01:30:23;;;;;;;;;;;;;;;6.33;45.92;93747.59;5003789;28;19990;-72
2021/12/28 01:32:49;;;;;;;;;;;;;;;6.45;45.64;93754.97;5004911;28;20064;-73
2021/12/28 01:35:14;;;;;;;;;;;;;;;6.42;46.53;93758.03;5004079;28;20017;-72
2021/12/28 01:37:39;;;;;;;;;;;;;;;6.56;45.64;93746.50;5004702;28;19962;-72
2021/12/28 01:40:05;;;;;;;;;;;;;;;6.69;45.39;93752.84;5003875;28;19990;-72
2021/12/28 01:42:31;;;;;;;;;;;;;;;6.56;46.32;93753.63;5003740;28;19989;-73
2021/12/28 01:44:56;;;;;;;;;;;;;;;6.49;44.79;93743.84;5004046;28;19978;-72
2021/12/28 01:47:22;;;;;;;;;;;;;;;6.47;47.55;93745.03;5004058;28;20032;-72
2021/12/28 01:49:47;;;;;;;;;;;;;;;6.48;46.30;93744.00;5005517;28;20051;-72
2021/12/28 01:52:12;;;;;;;;;;;;;;;6.35;45.96;93744.75;4996809;28;20033;-72
2021/12/28 01:54:38;;;;;;;;;;;;;;;6.50;46.37;93737.53;5004963;28;19985;-72
2021/12/28 01:57:03;;;;;;;;;;;;;;;6.36;46.39;93733.19;4986495;28;19992;-72
2021/12/28 01:59:28;;;;;;;;;;;;;;;6.55;45.40;93731.66;5003713;28;20052;-72
2021/12/28 02:01:56;;;;;;;;;;;;;;;6.36;46.16;93725.28;5003771;28;20179;-73
2021/12/28 02:04:22;;;;;;;;;;;;;;;6.23;46.29;93721.53;5003302;28;20342;-72
2021/12/28 02:06:47;;;;;;;;;;;;;;;6.23;46.96;93721.53;5003080;28;20449;-72
2021/12/28 02:09:13;;;;;;;;;;;;;;;6.37;46.68;93724.25;4985827;28;20071;-72
2021/12/28 02:11:38;;;;;;;;;;;;;;;6.50;45.81;93719.03;5003895;28;20331;-72
2021/12/28 02:14:06;;;;;;;;;;;;;;;6.16;46.27;93719.91;4985775;28;20258;-72
2021/12/28 02:16:31;;;;;;;;;;;;;;;6.23;47.22;93715.47;5010813;28;20349;-72
2021/12/28 02:18:57;;;;;;;;;;;;;;;6.27;49.71;93716.69;5004022;28;20000;-72
2021/12/28 02:21:22;;;;;;;;;;;;;;;6.49;45.77;93713.94;5004361;28;19974;-72
2021/12/28 02:23:47;;;;;;;;;;;;;;;6.31;49.85;93709.16;4987016;28;20073;-72
2021/12/28 02:26:12;;;;;;;;;;;;;;;6.56;45.86;93706.84;5005648;28;19976;-72
2021/12/28 02:28:38;;;;;;;;;;;;;;;6.52;46.99;93710.91;5007215;28;20296;-73
2021/12/28 02:31:03;;;;;;;;;;;;;;;6.15;48.51;93702.44;5003868;28;20453;-73
2021/12/28 02:33:28;;;;;;;;;;;;;;;6.34;47.42;93700.84;4999893;28;20342;-72
2021/12/28 02:35:56;;;;;;;;;;;;;;;6.26;51.62;93693.94;5004378;28;19990;-73
2021/12/28 02:38:21;;;;;;;;;;;;;;;6.27;49.41;93692.09;5003910;28;19994;-72
2021/12/28 02:40:46;;;;;;;;;;;;;;;6.42;46.14;93686.66;5004565;28;20337;-72
2021/12/28 02:43:12;;;;;;;;;;;;;;;5.64;54.39;93689.38;5018897;28;20002;-73
2021/12/28 02:45:38;;;;;;;;;;;;;;;4.60;57.54;93692.41;4986780;28;20180;-72
2021/12/28 02:48:04;;;;;;;;;;;;;;;5.64;51.94;93686.72;5004388;28;20394;-72
2021/12/28 02:50:34;;;;;;;;;;;;;;;5.48;54.74;93687.88;5004441;28;19989;-73
2021/12/28 02:52:59;;;;;;;;;;;;;;;5.50;54.69;93691.13;5011025;28;20172;-72
2021/12/28 02:55:25;;;;;;;;;;;;;;;5.97;52.12;93686.09;5004911;28;19989;-72
2021/12/28 02:57:51;;;;;;;;;;;;;;;6.01;48.89;93680.41;5008343;28;19985;-69
2021/12/28 03:00:30;;;;;;;;;;;;;;;6.25;48.20;93684.34;5019421;28;20098;-69
2021/12/28 03:02:55;;;;;;;;;;;;;;;6.30;46.68;93681.94;5003572;28;20092;-70
2021/12/28 03:05:21;;;;;;;;;;;;;;;6.43;46.20;93683.78;5003832;28;20073;-69
2021/12/28 03:07:46;;;;;;;;;;;;;;;6.40;51.16;93683.38;5012686;28;20012;-68
2021/12/28 03:10:11;;;;;;;;;;;;;;;6.41;51.21;93683.19;5003717;28;19984;-69
2021/12/28 03:12:37;;;;;;;;;;;;;;;6.45;47.37;93678.31;5004228;28;19975;-69
2021/12/28 03:15:02;;;;;;;;;;;;;;;6.64;45.70;93679.41;5003753;28;20043;-68
2021/12/28 03:17:27;;;;;;;;;;;;;;;6.57;46.83;93673.28;5004113;28;19976;-68
2021/12/28 03:19:52;;;;;;;;;;;;;;;6.48;45.67;93675.28;5003334;28;20529;-69
2021/12/28 03:22:18;;;;;;;;;;;;;;;6.61;47.85;93663.94;5003955;28;20468;-68
2021/12/28 03:24:43;;;;;;;;;;;;;;;6.52;47.09;93665.94;4994045;28;19974;-68
2021/12/28 03:27:08;;;;;;;;;;;;;;;6.60;48.46;93673.69;5012793;28;20002;-68
2021/12/28 03:29:33;;;;;;;;;;;;;;;6.02;48.11;93669.63;5017755;28;19999;-69
2021/12/28 03:31:59;;;;;;;;;;;;;;;6.38;46.37;93665.09;5017501;28;20500;-69
2021/12/28 03:34:24;;;;;;;;;;;;;;;6.39;45.94;93656.13;5012358;28;19993;-69
2021/12/28 03:36:49;;;;;;;;;;;;;;;6.49;45.98;93655.78;4987905;28;19974;-69
2021/12/28 03:39:14;;;;;;;;;;;;;;;6.20;48.80;93652.44;5002420;28;20029;-69
2021/12/28 03:41:40;;;;;;;;;;;;;;;6.15;51.59;93655.66;5006088;28;19974;-70
2021/12/28 03:44:05;;;;;;;;;;;;;;;6.24;49.64;93645.72;5014536;28;19996;-70
2021/12/28 03:46:30;;;;;;;;;;;;;;;6.50;47.67;93646.84;5003253;28;19994;-69
2021/12/28 03:48:56;;;;;;;;;;;;;;;6.41;47.73;93632.97;5002021;28;19978;-70
2021/12/28 03:51:21;;;;;;;;;;;;;;;6.53;47.74;93635.06;5003586;28;19998;-69
2021/12/28 03:53:46;;;;;;;;;;;;;;;6.29;47.67;93631.94;5003943;28;19984;-69
2021/12/28 03:56:12;;;;;;;;;;;;;;;6.52;50.63;93628.16;5015234;28;20000;-69
2021/12/28 03:58:38;;;;;;;;;;;;;;;6.43;46.84;93623.00;5006880;28;20043;-69
2021/12/28 04:01:03;;;;;;;;;;;;;;;6.69;44.94;93616.16;5018465;28;20422;-70
2021/12/28 04:03:29;;;;;;;;;;;;;;;6.69;49.71;93618.78;5009023;28;20325;-69
2021/12/28 04:05:54;;;;;;;;;;;;;;;6.77;45.83;93615.16;5005746;28;19985;-68
2021/12/28 04:08:22;;;;;;;;;;;;;;;6.84;48.66;93615.13;5005377;28;20353;-70
2021/12/28 04:10:54;;;;;;;;;;;;;;;6.69;46.33;93610.84;5016415;28;20000;-69
2021/12/28 04:13:19;;;;;;;;;;;;;;;6.64;45.60;93614.09;5018263;28;20035;-69
2021/12/28 04:15:45;;;;;;;;;;;;;;;6.61;47.53;93605.78;5003737;28;20478;-69
2021/12/28 04:18:10;;;;;;;;;;;;;;;5.98;52.84;93613.75;5016130;28;19969;-69
2021/12/28 04:20:35;;;;;;;;;;;;;;;5.79;50.80;93615.31;4985915;28;20651;-70
2021/12/28 04:23:00;;;;;;;;;;;;;;;6.35;48.31;93610.78;5003043;28;19997;-70
2021/12/28 04:25:26;;;;;;;;;;;;;;;6.43;46.80;93606.34;5003485;28;19970;-68
2021/12/28 04:27:51;;;;;;;;;;;;;;;6.47;47.32;93605.72;5013866;28;19998;-70
2021/12/28 04:30:16;;;;;;;;;;;;;;;6.32;47.89;93597.97;5012779;28;20630;-70
2021/12/28 04:32:42;;;;;;;;;;;;;;;6.59;49.61;93602.50;5006532;28;19970;-69
2021/12/28 04:35:07;;;;;;;;;;;;;;;6.60;46.87;93598.88;5012073;28;19997;-68
2021/12/28 04:37:32;;;;;;;;;;;;;;;6.69;48.96;93599.44;5006911;28;19970;-70
2021/12/28 04:39:57;;;;;;;;;;;;;;;6.69;47.86;93597.63;5005128;28;20509;-70
2021/12/28 04:42:25;;;;;;;;;;;;;;;6.62;48.18;93591.53;5017480;28;20428;-66
2021/12/28 04:44:50;;;;;;;;;;;;;;;6.32;50.03;93590.03;5017713;28;19979;-66
2021/12/28 04:47:16;;;;;;;;;;;;;;;6.56;45.51;93585.22;5009680;28;19986;-66
2021/12/28 04:49:41;;;;;;;;;;;;;;;6.70;48.45;93593.16;5007717;28;20020;-66
2021/12/28 04:52:07;;;;;;;;;;;;;;;6.88;45.31;93581.97;5010509;28;20032;-66
2021/12/28 04:54:32;;;;;;;;;;;;;;;6.79;49.03;93586.66;5017825;28;19990;-66
2021/12/28 04:56:57;;;;;;;;;;;;;;;6.86;45.49;93592.75;5009934;28;19993;-67
2021/12/28 04:59:22;;;;;;;;;;;;;;;6.74;47.54;93581.97;5002625;28;19998;-67
2021/12/28 05:01:48;;;;;;;;;;;;;;;6.83;45.25;93576.50;5015456;28;19996;-67
2021/12/28 05:04:13;;;;;;;;;;;;;;;6.88;47.22;93580.13;5014196;28;20520;-65
2021/12/28 05:06:38;;;;;;;;;;;;;;;7.04;47.43;93572.78;5012393;28;20406;-65
2021/12/28 05:09:04;;;;;;;;;;;;;;;6.84;46.93;93575.47;4988857;28;20186;-65
2021/12/28 05:11:30;;;;;;;;;;;;;;;6.68;46.17;93569.56;5009997;28;19996;-66
2021/12/28 05:13:56;;;;;;;;;;;;;;;6.18;51.99;93575.16;5019281;28;20057;-66
2021/12/28 05:16:21;;;;;;;;;;;;;;;6.53;47.06;93561.81;5005324;28;19998;-67
2021/12/28 05:18:46;;;;;;;;;;;;;;;6.60;46.52;93553.91;5018672;28;20001;-67
2021/12/28 05:21:11;;;;;;;;;;;;;;;6.88;45.23;93552.88;5013887;28;20027;-67
2021/12/28 05:23:37;;;;;;;;;;;;;;;6.73;45.75;93543.31;5005569;28;20176;-67
2021/12/28 05:26:02;;;;;;;;;;;;;;;6.68;50.51;93539.66;5006278;28;19973;-66
2021/12/28 05:28:27;;;;;;;;;;;;;;;6.90;44.73;93545.53;5018273;28;20347;-68
2021/12/28 05:30:52;;;;;;;;;;;;;;;7.06;46.62;93543.47;5008233;28;19986;-68
2021/12/28 05:33:18;;;;;;;;;;;;;;;6.42;46.80;93544.72;5005963;28;20080;-66
2021/12/28 05:35:43;;;;;;;;;;;;;;;6.69;45.43;93528.88;5008637;28;19992;-67
2021/12/28 05:38:08;;;;;;;;;;;;;;;6.88;48.81;93531.72;5020744;28;20023;-67
2021/12/28 05:40:34;;;;;;;;;;;;;;;6.77;49.47;93520.72;5019005;28;19977;-66
2021/12/28 05:42:59;;;;;;;;;;;;;;;6.85;46.10;93522.34;5017173;28;20493;-67
2021/12/28 05:45:24;;;;;;;;;;;;;;;6.85;51.01;93530.28;5020091;28;20394;-67
2021/12/28 05:47:49;;;;;;;;;;;;;;;6.50;46.74;93527.88;5011338;28;20072;-67
2021/12/28 05:50:15;;;;;;;;;;;;;;;6.67;47.89;93515.06;5005188;28;19989;-67
2021/12/28 05:52:40;;;;;;;;;;;;;;;6.36;47.25;93521.75;5005775;28;19970;-67
2021/12/28 05:55:05;;;;;;;;;;;;;;;6.66;48.26;93520.56;5006589;28;19993;-67
2021/12/28 05:57:31;;;;;;;;;;;;;;;6.89;45.91;93514.81;4999210;28;20710;-67
2021/12/28 05:59:56;;;;;;;;;;;;;;;6.84;47.54;93519.91;5005281;28;20021;-66
2021/12/28 06:02:21;;;;;;;;;;;;;;;6.74;50.77;93520.34;5008162;28;20210;-67
2021/12/28 06:04:47;;;;;;;;;;;;;;;6.88;46.24;93515.84;5009990;28;20002;-66
2021/12/28 06:07:12;;;;;;;;;;;;;;;6.53;51.28;93516.09;5015887;28;20037;-66
2021/12/28 06:09:37;;;;;;;;;;;;;;;5.50;53.50;93516.91;5005648;28;19993;-67
2021/12/28 06:12:02;;;;;;;;;;;;;;;6.17;49.32;93513.59;5006731;28;20444;-68
2021/12/28 06:14:28;;;;;;;;;;;;;;;5.89;48.87;93519.03;5016800;28;20060;-66
2021/12/28 06:16:53;;;;;;;;;;;;;;;5.00;55.08;93528.41;5016152;28;19982;-67
2021/12/28 06:19:18;;;;;;;;;;;;;;;5.90;52.24;93515.38;4986451;28;20577;-67
2021/12/28 06:21:44;;;;;;;;;;;;;;;5.90;52.63;93516.22;5005303;28;20069;-66
2021/12/28 06:24:09;;;;;;;;;;;;;;;5.63;53.44;93510.03;5004616;28;20000;-66
2021/12/28 06:26:34;;;;;;;;;;;;;;;5.72;53.04;93503.59;5007661;28;20084;-66
2021/12/28 06:29:00;;;;;;;;;;;;;;;6.08;47.96;93496.31;4987337;28;20295;-67
2021/12/28 06:31:28;;;;;;;;;;;;;;;6.28;47.76;93487.56;5005123;28;20308;-66
2021/12/28 06:33:57;;;;;;;;;;;;;;;6.34;47.35;93492.06;5005883;28;20450;-66
2021/12/28 06:36:23;;;;;;;;;;;;;;;6.40;49.12;93477.22;4998713;28;20028;-66
2021/12/28 06:38:48;;;;;;;;;;;;;;;6.41;47.90;93484.13;5018396;28;20114;-66
2021/12/28 06:41:13;;;;;;;;;;;;;;;6.59;45.60;93487.00;5004824;28;19970;-67
2021/12/28 06:43:39;;;;;;;;;;;;;;;6.44;50.07;93479.25;5015816;28;20872;-67
2021/12/28 06:46:04;;;;;;;;;;;;;;;5.76;50.31;93488.97;5014161;28;20186;-67
2021/12/28 06:48:29;;;;;;;;;;;;;;;6.29;47.20;93486.56;4996537;28;20013;-67
2021/12/28 06:50:54;;;;;;;;;;;;;;;6.44;48.13;93487.19;5000582;28;20477;-67
2021/12/28 06:53:19;;;;;;;;;;;;;;;6.65;46.85;93490.66;4999830;28;19981;-66
2021/12/28 06:55:45;;;;;;;;;;;;;;;6.83;45.42;93476.78;5018475;28;20055;-66
2021/12/28 06:58:10;;;;;;;;;;;;;;;6.87;47.86;93477.19;5004823;28;20037;-66
2021/12/28 07:00:37;;;;;;;;;;;;;;;6.35;48.18;93480.47;5015884;28;19974;-68
2021/12/28 07:03:04;;;;;;;;;;;;;;;6.46;48.21;93476.41;5005687;28;19998;-67
2021/12/28 07:05:29;;;;;;;;;;;;;;;6.68;48.67;93476.19;4998394;28;20376;-66
2021/12/28 07:07:54;;;;;;;;;;;;;;;6.64;50.71;93473.16;5006773;28;20051;-67
2021/12/28 07:10:20;;;;;;;;;;;;;;;6.52;48.93;93478.25;5017289;28;19977;-67
2021/12/28 07:12:50;;;;;;;;;;;;;;;5.91;48.94;93472.94;5006386;28;19973;-66
2021/12/28 07:15:15;;;;;;;;;;;;;;;6.25;48.50;93468.47;5013511;28;20016;-66
2021/12/28 07:17:40;;;;;;;;;;;;;;;6.41;49.26;93463.78;5019581;28;19974;-67
2021/12/28 07:20:06;;;;;;;;;;;;;;;6.41;48.91;93458.50;5009866;28;20482;-67
2021/12/28 07:22:31;;;;;;;;;;;;;;;6.32;48.62;93460.53;5003630;28;20044;-67
2021/12/28 07:24:56;;;;;;;;;;;;;;;6.60;45.65;93462.16;5004031;28;20064;-66
2021/12/28 07:27:22;;;;;;;;;;;;;;;6.47;49.50;93455.03;5016296;28;20445;-67
2021/12/28 07:29:47;;;;;;;;;;;;;;;6.56;51.54;93468.09;5008582;28;20382;-67
2021/12/28 07:32:12;;;;;;;;;;;;;;;6.12;52.47;93473.75;5012569;28;19994;-66
2021/12/28 07:34:37;;;;;;;;;;;;;;;5.61;50.87;93481.19;5003155;28;20412;-68
2021/12/28 07:37:03;;;;;;;;;;;;;;;6.14;48.35;93474.38;5003574;28;20657;-67
2021/12/28 07:39:28;;;;;;;;;;;;;;;6.27;50.73;93476.22;5012455;28;19994;-67
2021/12/28 07:41:53;;;;;;;;;;;;;;;6.46;49.68;93471.13;5003671;28;20031;-68
2021/12/28 07:44:18;;;;;;;;;;;;;;;6.02;53.55;93481.28;5014923;28;19993;-67
2021/12/28 07:46:44;;;;;;;;;;;;;;;6.13;49.29;93473.53;4992053;28;19994;-68
2021/12/28 07:49:09;;;;;;;;;;;;;;;6.22;48.84;93478.63;5004692;28;19982;-65
2021/12/28 07:51:34;;;;;;;;;;;;;;;5.55;51.94;93476.72;5003857;28;19986;-66
2021/12/28 07:53:59;;;;;;;;;;;;;;;5.67;53.17;93474.31;5004722;28;19981;-67
2021/12/28 07:56:25;;;;;;;;;;;;;;;5.98;48.52;93476.41;5011520;28;21409;-66
2021/12/28 07:58:50;;;;;;;;;;;;;;;6.31;47.33;93480.06;5012323;28;19999;-66
2021/12/28 08:01:16;;;;;;;;;;;;;;;5.55;51.38;93487.28;5004608;28;20020;-66
2021/12/28 08:03:41;;;;;;;;;;;;;;;6.01;47.96;93469.88;5010721;28;20557;-67
2021/12/28 08:06:06;;;;;;;;;;;;;;;6.40;49.75;93475.41;5014242;28;20039;-66
2021/12/28 08:08:31;;;;;;;;;;;;;;;6.25;50.08;93471.13;5000539;28;19993;-67
2021/12/28 08:10:57;;;;;;;;;;;;;;;6.43;46.44;93461.75;5005955;28;19994;-67
2021/12/28 08:13:22;;;;;;;;;;;;;;;6.46;48.21;93468.47;5005400;28;20365;-68
2021/12/28 08:15:48;;;;;;;;;;;;;;;6.46;46.73;93469.28;4998712;28;20027;-66
2021/12/28 08:18:13;;;;;;;;;;;;;;;6.53;48.19;93463.22;5010442;28;19969;-66
2021/12/28 08:20:38;;;;;;;;;;;;;;;6.64;50.30;93466.03;4999885;28;19976;-67
2021/12/28 08:23:04;;;;;;;;;;;;;;;6.40;47.96;93464.00;4998433;28;20462;-67
2021/12/28 08:25:29;;;;;;;;;;;;;;;6.50;46.33;93465.22;4981729;28;19972;-67
2021/12/28 08:27:54;;;;;;;;;;;;;;;6.77;48.20;93462.53;4997662;28;20425;-67
2021/12/28 08:30:20;;;;;;;;;;;;;;;6.69;49.46;93456.66;4980690;28;20453;-66
2021/12/28 08:32:46;;;;;;;;;;;;;;;6.70;48.17;93474.16;4983652;28;19977;-66
2021/12/28 08:35:11;;;;;;;;;;;;;;;5.86;52.48;93484.09;4998214;28;20293;-66
2021/12/28 08:37:36;;;;;;;;;;;;;;;5.93;49.37;93481.47;4979829;28;20014;-66
2021/12/28 08:40:02;;;;;;;;;;;;;;;6.21;51.78;93475.19;4998389;28;20024;-67
2021/12/28 08:42:27;;;;;;;;;;;;;;;6.00;52.80;93484.13;4985195;28;20450;-67
2021/12/28 08:44:52;;;;;;;;;;;;;;;6.17;50.98;93481.91;5006438;28;19974;-67
2021/12/28 08:47:18;;;;;;;;;;;;;;;4.25;58.31;93498.13;4997104;28;20004;-66
2021/12/28 08:49:43;;;;;;;;;;;;;;;4.97;52.61;93492.69;4998498;28;20024;-66
2021/12/28 08:52:08;;;;;;;;;;;;;;;5.83;53.22;93495.06;4998415;28;20029;-66
2021/12/28 08:54:33;;;;;;;;;;;;;;;6.01;52.16;93498.94;4997898;28;19994;-67
2021/12/28 08:56:59;;;;;;;;;;;;;;;5.84;53.51;93509.91;5014044;28;20028;-67
2021/12/28 08:59:24;;;;;;;;;;;;;;;6.32;50.31;93509.97;4984057;28;20471;-66
2021/12/28 09:01:49;;;;;;;;;;;;;;;6.30;51.08;93515.44;5000339;28;19999;-66
2021/12/28 09:04:15;;;;;;;;;;;;;;;6.15;49.23;93504.25;5004072;28;20083;-66
2021/12/28 09:06:40;;;;;;;;;;;;;;;6.08;50.64;93504.22;4998034;28;20056;-66
2021/12/28 09:09:05;;;;;;;;;;;;;;;6.32;50.17;93486.19;4998988;28;20096;-67
2021/12/28 09:11:30;;;;;;;;;;;;;;;6.43;49.69;93487.38;4983284;28;20122;-67
2021/12/28 09:13:56;;;;;;;;;;;;;;;6.46;47.78;93487.78;4996181;28;19989;-66
2021/12/28 09:16:22;;;;;;;;;;;;;;;6.54;47.80;93485.97;5009404;28;20322;-66
2021/12/28 09:18:48;;;;;;;;;;;;;;;6.80;46.39;93471.88;4997312;28;20096;-66
2021/12/28 09:21:13;;;;;;;;;;;;;;;6.94;46.42;93479.81;4995158;28;20565;-66
2021/12/28 09:23:39;;;;;;;;;;;;;;;6.87;48.01;93490.41;4998496;28;20511;-65
2021/12/28 09:26:04;;;;;;;;;;;;;;;6.66;48.55;93500.19;4998175;28;19981;-66
2021/12/28 09:28:29;;;;;;;;;;;;;;;6.67;47.09;93504.47;4997532;28;20360;-67
2021/12/28 09:30:55;;;;;;;;;;;;;;;6.71;51.16;93503.06;5006357;28;20057;-66
2021/12/28 09:33:20;;;;;;;;;;;;;;;6.85;50.73;93505.66;5017695;28;20064;-68
2021/12/28 09:35:45;;;;;;;;;;;;;;;6.74;50.48;93505.25;4997785;28;20038;-67
2021/12/28 09:38:11;;;;;;;;;;;;;;;6.70;50.73;93511.97;4997210;28;20458;-68
2021/12/28 09:40:36;;;;;;;;;;;;;;;6.75;47.76;93509.56;5009018;28;20229;-66
2021/12/28 09:43:03;;;;;;;;;;;;;;;5.69;53.59;93507.44;4999294;28;20027;-67
2021/12/28 09:45:28;;;;;;;;;;;;;;;6.20;50.45;93502.63;5004173;28;20301;-66
2021/12/28 09:47:53;;;;;;;;;;;;;;;5.63;51.30;93510.84;4969908;28;19998;-66
2021/12/28 09:50:18;;;;;;;;;;;;;;;4.90;55.42;93512.94;4989973;28;20000;-66
2021/12/28 09:52:44;;;;;;;;;;;;;;;5.63;53.97;93508.22;5001953;28;20255;-64
2021/12/28 09:55:09;;;;;;;;;;;;;;;5.19;52.30;93510.28;5008995;28;19996;-66
2021/12/28 09:57:35;;;;;;;;;;;;;;;6.00;49.43;93494.69;5005652;28;19989;-66
2021/12/28 10:00:00;;;;;;;;;;;;;;;6.38;50.12;93499.38;4989086;28;20085;-67
2021/12/28 10:02:25;;;;;;;;;;;;;;;6.51;47.42;93495.13;5006593;28;20068;-67
2021/12/28 10:04:58;;;;;;;;;;;;;;;6.53;47.13;93485.16;5011193;28;20492;-64
2021/12/28 10:07:28;;;;;;;;;;;;;;;6.54;49.54;93497.38;4982889;28;20020;-65
2021/12/28 10:09:53;;;;;;;;;;;;;;;6.67;50.05;93485.97;5003570;28;19981;-66
2021/12/28 10:12:39;;;;;;;;;;;;;;;6.86;47.88;93492.22;5001425;28;20009;-64
2021/12/28 10:15:05;;;;;;;;;;;;;;;6.94;46.62;93490.38;4981508;28;20473;-64
2021/12/28 10:17:31;;;;;;;;;;;;;;;6.81;47.11;93488.59;4998832;28;20781;-67
2021/12/28 10:19:57;;;;;;;;;;;;;;;5.28;55.32;93497.75;5003859;28;19993;-65
2021/12/28 10:22:34;;;;;;;;;;;;;;;6.31;48.80;93489.81;5010427;28;19997;-65
2021/12/28 10:25:01;;;;;;;;;;;;;;;6.55;51.74;93493.69;5019556;28;19974;-65
2021/12/28 10:27:27;;;;;;;;;;;;;;;6.71;48.69;93486.38;5003973;28;20532;-64
2021/12/28 10:29:53;;;;;;;;;;;;;;;6.72;49.71;93485.34;5017244;28;20044;-66
2021/12/28 10:32:25;;;;;;;;;;;;;;;6.89;50.83;93480.41;4994702;28;20330;-66
2021/12/28 10:34:51;;;;;;;;;;;;;;;6.80;50.67;93473.75;4999193;28;20033;-65
2021/12/28 10:37:26;;;;;;;;;;;;;;;6.34;49.61;93473.56;5013461;28;19981;-66
2021/12/28 10:39:54;;;;;;;;;;;;;;;6.80;49.99;93465.81;5004597;28;19989;-65
2021/12/28 10:42:38;;;;;;;;;;;;;;;6.90;48.61;93466.16;5004096;28;19974;-66
2021/12/28 10:45:03;;;;;;;;;;;;;;;6.93;49.26;93463.13;5009663;28;19973;-66
2021/12/28 10:47:29;;;;;;;;;;;;;;;7.04;47.20;93466.94;5000982;28;19990;-66
2021/12/28 10:49:54;;;;;;;;;;;;;;;7.04;49.05;93461.66;5013779;28;20028;-66
2021/12/28 10:52:25;;;;;;;;;;;;;;;7.08;50.29;93462.06;5007218;28;20135;-67
2021/12/28 10:54:51;;;;;;;;;;;;;;;7.26;47.75;93448.97;5017386;28;20020;-75
2021/12/28 10:57:16;;;;;;;;;;;;;;;6.94;50.43;93456.00;4985297;28;19985;-75
2021/12/28 10:59:41;;;;;;;;;;;;;;;6.04;51.74;93448.34;5004880;28;20694;-70
2021/12/28 11:02:06;;;;;;;;;;;;;;;6.45;50.70;93441.22;5003557;28;20024;-65
2021/12/28 11:04:33;;;;;;;;;;;;;;;6.64;48.52;93436.94;5003142;28;20005;-66
2021/12/28 11:06:58;;;;;;;;;;;;;;;7.01;47.74;93433.78;5003678;28;19993;-74
2021/12/28 11:09:24;;;;;;;;;;;;;;;6.85;48.24;93429.78;4970015;28;20052;-71
2021/12/28 11:11:50;;;;;;;;;;;;;;;7.04;47.42;93418.53;5019286;28;19994;-73
2021/12/28 11:14:16;;;;;;;;;;;;;;;7.19;50.38;93426.19;4989035;28;20184;-72
2021/12/28 11:16:42;;;;;;;;;;;;;;;6.97;48.85;93419.34;4990620;28;20287;-72
2021/12/28 11:19:08;;;;;;;;;;;;;;;7.05;49.56;93412.19;4986514;28;19996;-73
2021/12/28 11:21:41;;;;;;;;;;;;;;;7.05;50.10;93409.56;5015609;28;20444;-73
2021/12/28 11:24:09;;;;;;;;;;;;;;;6.50;52.42;93407.06;4992015;28;19990;-73
2021/12/28 11:26:38;;;;;;;;;;;;;;;6.90;48.74;93410.63;5003237;28;19992;-73
2021/12/28 11:29:05;;;;;;;;;;;;;;;6.28;50.34;93406.47;4985804;28;19981;-72
2021/12/28 11:31:34;;;;;;;;;;;;;;;6.32;52.16;93398.97;5004398;28;20012;-72
2021/12/28 11:34:01;;;;;;;;;;;;;;;6.22;53.44;93404.63;5005388;28;20333;-72
2021/12/28 11:36:27;;;;;;;;;;;;;;;6.83;49.93;93389.50;5013147;28;19990;-72
2021/12/28 11:38:53;;;;;;;;;;;;;;;5.20;55.03;93398.47;4969023;28;20009;-72
2021/12/28 11:41:19;;;;;;;;;;;;;;;6.25;53.99;93381.28;4997306;28;20436;-71
2021/12/28 11:43:44;;;;;;;;;;;;;;;6.91;50.63;93371.75;5017986;28;19993;-72
2021/12/28 11:46:10;;;;;;;;;;;;;;;5.67;54.78;93380.09;4985278;28;19973;-72
2021/12/28 11:48:36;;;;;;;;;;;;;;;6.04;54.83;93376.22;4969189;28;20435;-72
2021/12/28 11:51:01;;;;;;;;;;;;;;;6.39;51.66;93368.03;5002807;28;20056;-72
2021/12/28 11:53:27;;;;;;;;;;;;;;;6.37;53.99;93372.72;4985150;28;19978;-72
2021/12/28 11:55:52;;;;;;;;;;;;;;;6.83;52.16;93367.53;4985267;28;20485;-72
2021/12/28 11:58:18;;;;;;;;;;;;;;;6.94;52.92;93369.50;5007103;28;20039;-72
2021/12/28 12:00:43;;;;;;;;;;;;;;;6.31;54.88;93369.06;5006608;28;19974;-71
2021/12/28 12:03:10;;;;;;;;;;;;;;;6.43;50.82;93356.00;4977392;28;20407;-72
2021/12/28 12:05:35;;;;;;;;;;;;;;;6.34;54.66;93344.88;4992631;28;20011;-72
2021/12/28 12:08:05;;;;;;;;;;;;;;;6.34;54.64;93351.97;4989069;28;20010;-71
2021/12/28 12:10:31;;;;;;;;;;;;;;;6.12;55.24;93355.69;4968035;28;19989;-72
2021/12/28 12:12:57;;;;;;;;;;;;;;;5.06;58.76;93364.16;4994759;28;20032;-72
2021/12/28 12:15:23;;;;;;;;;;;;;;;5.56;57.87;93354.28;4985067;28;19993;-72
2021/12/28 12:17:49;;;;;;;;;;;;;;;5.64;57.90;93350.66;4987859;28;20362;-71
2021/12/28 12:20:21;;;;;;;;;;;;;;;6.01;55.77;93340.47;4971967;28;20045;-71
2021/12/28 12:22:48;;;;;;;;;;;;;;;5.95;56.63;93336.00;4971351;28;20081;-71
2021/12/28 12:25:14;;;;;;;;;;;;;;;6.09;55.12;93329.66;5002742;28;19978;-71
2021/12/28 12:27:46;;;;;;;;;;;;;;;6.32;55.74;93330.25;5017208;28;19997;-71
2021/12/28 12:30:22;;;;;;;;;;;;;;;6.37;54.54;93327.78;5006063;28;20497;-71
2021/12/28 12:33:02;;;;;;;;;;;;;;;6.75;54.68;93326.25;5002703;28;20481;-71
2021/12/28 12:35:40;;;;;;;;;;;;;;;5.79;57.31;93316.94;5016824;28;20345;-72
2021/12/28 12:38:06;;;;;;;;;;;;;;;6.60;53.95;93315.94;5018675;28;20004;-72
2021/12/28 12:40:49;;;;;;;;;;;;;;;6.18;56.73;93321.53;5004030;28;20397;-72
2021/12/28 12:43:14;;;;;;;;;;;;;;;5.33;59.21;93318.53;5016565;28;19986;-72
2021/12/28 12:45:52;;;;;;;;;;;;;;;6.15;56.25;93316.66;4986371;28;20286;-70
2021/12/28 12:48:35;;;;;;;;;;;;;;;5.75;57.85;93313.06;5001931;28;20029;-71
2021/12/28 12:51:19;;;;;;;;;;;;;;;5.78;59.02;93296.00;4968472;28;19989;-71
2021/12/28 12:53:45;;;;;;;;;;;;;;;6.09;57.71;93300.59;4987881;28;20371;-72